DW4479 Weather Reports


Display with metric or nautical units.
time (UTC)temp
F
wind
direction
speed
MPH
gust
MPH
rain 1hr
in
rain 24hr
in
rain mn
in
humidity
%
barometer
mb
20180918234507 63 162 4.0 0.0 0.00 0.00 0.00 84 1009.3
20180918233009 63 176 4.0 0.0 0.00 0.00 0.00 85 1009.4
20180918231501 63 182 4.0 0.0 0.00 0.00 0.00 86 1009.5
20180918230125 63 160 4.0 0.0 0.00 0.00 0.00 85 1009.6
20180918224646 63 167 4.0 0.0 0.00 0.00 0.00 85 1009.4
20180918223142 63 135 4.0 0.0 0.00 0.00 0.00 85 1009.6
20180918221613 63 135 5.0 0.0 0.00 0.00 0.00 84 1009.3
20180918220112 63 202 5.0 0.0 0.00 0.00 0.00 84 1009.3
20180918214626 63 157 5.0 0.0 0.00 0.00 0.00 84 1009.3
20180918213140 63 134 5.0 0.0 0.00 0.00 0.00 84 1009.1
20180918211751 63 160 5.0 0.0 0.00 0.00 0.00 84 1009.1
20180918203059 64 138 4.0 0.0 0.00 0.00 0.00 84 1009.2
20180918201618 65 150 3.0 0.0 0.00 0.00 0.00 83 1009.0
20180918200050 65 148 1.0 0.0 0.00 0.00 0.00 83 1008.9
20180918194602 65 157 4.0 0.0 0.00 0.00 0.00 80 1008.9
20180918193046 65 173 5.0 0.0 0.00 0.00 0.00 79 1008.8
20180918191549 65 146 5.0 0.0 0.00 0.00 0.00 78 1008.7
20180918190047 65 202 4.0 0.0 0.00 0.00 0.00 78 1008.6
20180918184551 65 138 4.0 0.0 0.00 0.00 0.00 79 1008.3
20180918183111 65 153 3.0 0.0 0.00 0.00 0.00 81 1008.1
20180918181605 66 161 3.0 0.0 0.00 0.00 0.00 84 1007.9
20180918180047 67 165 3.0 0.0 0.00 0.00 0.00 82 1007.9
20180918174600 68 140 5.0 0.0 0.00 0.00 0.00 80 1007.7
20180918173042 69 173 5.0 0.0 0.00 0.00 0.00 75 1007.6
20180918171613 71 159 1.0 0.0 0.00 0.00 0.00 63 1007.5
20180918170053 71 163 4.0 0.0 0.00 0.00 0.00 62 1007.5
20180918164543 71 180 1.0 0.0 0.00 0.00 0.00 62 1007.3
20180918163038 72 61 4.0 0.0 0.00 0.00 0.00 61 1007.2
20180918161557 72 244 4.0 0.0 0.00 0.00 0.00 61 1007.1
20180918160046 72 226 2.0 0.0 0.00 0.00 0.00 61 1007.2
20180918154553 72 109 3.0 0.0 0.00 0.00 0.00 60 1006.9
20180918153109 72 221 6.0 0.0 0.00 0.00 0.00 60 1006.8
20180918151534 72 167 4.0 0.0 0.00 0.00 0.00 61 1006.7
20180918150042 72 125 6.0 0.0 0.00 0.00 0.00 60 1006.4
20180918144530 72 106 6.0 0.0 0.00 0.00 0.00 60 1006.3
20180918143042 72 150 6.0 0.0 0.00 0.00 0.00 58 1006.0
20180918141525 72 145 7.0 0.0 0.00 0.00 0.00 58 1005.7
20180918140030 72 148 7.0 0.0 0.00 0.00 0.00 59 1005.9
20180918134527 74 182 7.0 0.0 0.00 0.00 0.00 55 1005.6
20180918133129 74 176 6.0 0.0 0.00 0.00 0.00 56 1005.4
20180918093101 68 155 9.0 0.0 0.00 0.00 0.00 78 1003.5
20180918090108 68 160 7.0 0.0 0.00 0.00 0.00 78 1003.2
20180918084556 67 161 9.0 0.0 0.00 0.00 0.00 78 1003.2
20180918083048 67 150 9.0 0.0 0.00 0.00 0.00 79 1002.9
20180918081551 66 136 10.0 0.0 0.00 0.00 0.00 81 1002.5
20180918080052 66 161 9.0 0.0 0.00 0.00 0.00 84 1002.5
20180918074537 66 167 8.0 0.0 0.00 0.00 0.00 87 1002.5
20180918073036 65 178 7.0 0.0 0.00 0.00 0.00 88 1002.5
20180918071534 65 140 7.0 0.0 0.00 0.00 0.00 89 1002.5
20180918070046 65 189 7.0 0.0 0.00 0.00 0.00 89 1002.4
20180918064531 64 150 7.0 0.0 0.00 0.00 0.00 89 1002.4
20180918063023 64 177 6.0 0.0 0.00 0.00 0.00 90 1002.5
20180918061527 64 141 5.0 0.0 0.00 0.00 0.00 90 1002.8
20180918060040 63 163 5.0 0.0 0.00 0.00 0.00 90 1002.7
20180918054535 63 196 5.0 0.0 0.00 0.00 0.00 89 1002.6
20180918053036 63 194 4.0 0.0 0.00 0.00 0.00 87 1002.6
20180918051535 63 174 4.0 0.0 0.00 0.00 0.00 85 1002.6
20180918050020 64 167 4.0 0.0 0.00 0.00 0.00 84 1002.6
20180918044521 64 175 4.0 0.0 0.00 0.00 0.00 82 1002.8
20180918043023 65 138 6.0 0.0 0.00 0.00 0.00 81 1002.8
20180918041511 65 235 0.0 0.0 0.00 0.00 0.00 82 1002.8
20180918040013 65 185 0.0 0.0 0.00 0.00 0.00 84 1002.6
20180918034507 65 155 0.0 0.0 0.00 0.00 0.00 83 1002.6
20180918033027 65 202 0.0 0.0 0.00 0.00 0.00 84 1002.6
20180918030326 66 111 0.0 0.0 0.00 0.00 0.00 81 1003.1
20180918021501 66 169 0.0 0.0 0.00 0.00 0.00 80 1003.2
20180918020207 66 184 0.0 0.0 0.00 0.00 0.00 80 1003.3
20180918014623 66 184 0.0 0.0 0.00 0.00 0.00 80 1003.4
20180918013141 65 177 0.0 0.0 0.00 0.00 0.00 80 1003.7
20180918011557 66 202 0.0 0.0 0.00 0.00 0.00 81 1004.1
20180918010057 66 140 0.0 0.0 0.00 0.00 0.00 80 1004.3
20180918004618 65 213 0.0 0.0 0.00 0.00 0.00 81 1004.4
20180918003110 65 157 0.0 0.0 0.00 0.00 0.00 82 1004.7
20180918001613 64 98 0.0 0.0 0.00 0.00 0.00 84 1004.9
20180918000102 65 159 0.0 0.0 0.00 0.00 0.00 85 1005.1